createdAt,value
2019-01-18T00:00:23.116Z,4.63
2019-01-18T00:02:54.410Z,4.37
2019-01-18T00:05:25.703Z,4.77
2019-01-18T00:07:56.999Z,7.60
2019-01-18T00:10:28.658Z,7.30
2019-01-18T00:12:59.972Z,10.20
2019-01-18T00:15:31.243Z,6.23
2019-01-18T00:18:02.634Z,15.60
2019-01-18T00:20:33.900Z,4.33
2019-01-18T00:23:05.186Z,4.30
2019-01-18T00:25:36.507Z,10.43
2019-01-18T00:28:07.784Z,8.07
2019-01-18T00:30:39.070Z,4.53
2019-01-18T00:33:10.369Z,4.87
2019-01-18T00:35:42.000Z,4.57
2019-01-18T00:38:13.295Z,4.77
2019-01-18T00:40:44.585Z,3.10
2019-01-18T00:43:15.900Z,3.60
2019-01-18T00:45:47.186Z,4.80
2019-01-18T00:48:18.850Z,5.60
2019-01-18T00:50:50.139Z,3.80
2019-01-18T00:53:21.437Z,9.43
2019-01-18T00:55:53.211Z,3.07
2019-01-18T00:58:24.502Z,5.50
2019-01-18T01:00:55.819Z,5.93
2019-01-18T01:03:27.105Z,6.53
2019-01-18T01:05:58.729Z,8.17
2019-01-18T01:08:30.083Z,3.90
2019-01-18T01:11:01.389Z,2.13
2019-01-18T01:13:32.683Z,5.87
2019-01-18T01:16:04.035Z,2.43
2019-01-18T01:18:35.330Z,3.97
2019-01-18T01:21:06.625Z,4.33
2019-01-18T01:23:37.930Z,3.27
2019-01-18T01:26:09.218Z,1.93
2019-01-18T01:28:40.523Z,3.10
2019-01-18T01:31:11.813Z,2.10
2019-01-18T01:33:43.497Z,2.53
2019-01-18T01:36:14.861Z,1.57
2019-01-18T01:38:46.171Z,2.23
2019-01-18T01:41:17.627Z,4.13
2019-01-18T01:43:49.207Z,1.47
2019-01-18T01:46:20.763Z,2.40
2019-01-18T01:48:52.239Z,2.53
2019-01-18T01:51:23.693Z,7.57
2019-01-18T01:53:55.271Z,5.83
2019-01-18T01:56:26.642Z,1.47
2019-01-18T01:58:58.413Z,2.13
2019-01-18T02:01:29.778Z,1.93
2019-01-18T02:04:01.165Z,2.00
2019-01-18T02:06:32.522Z,1.80
2019-01-18T02:09:05.516Z,2.73
2019-01-18T02:11:36.819Z,1.70
2019-01-18T02:14:08.133Z,1.67
2019-01-18T02:16:39.438Z,2.20
2019-01-18T02:19:11.120Z,4.50
2019-01-18T02:21:42.424Z,4.17
2019-01-18T02:24:13.717Z,2.03
2019-01-18T02:26:45.019Z,2.73
2019-01-18T02:29:16.318Z,3.63
2019-01-18T02:31:47.622Z,2.10
2019-01-18T02:34:18.910Z,2.13
2019-01-18T02:36:50.278Z,3.00
2019-01-18T02:39:21.581Z,3.00
2019-01-18T02:41:52.935Z,4.83
2019-01-18T02:44:24.241Z,5.77
2019-01-18T02:46:55.534Z,1.77
2019-01-18T02:49:26.828Z,2.27
2019-01-18T02:51:58.668Z,1.83
2019-01-18T02:54:30.704Z,1.73
2019-01-18T02:57:02.284Z,2.27
2019-01-18T02:59:33.575Z,1.80
2019-01-18T03:02:05.236Z,2.40
2019-01-18T03:04:36.555Z,3.50
2019-01-18T03:07:07.844Z,4.20
2019-01-18T03:09:39.145Z,2.33
2019-01-18T03:12:10.441Z,3.70
2019-01-18T03:14:41.741Z,2.27
2019-01-18T03:17:13.304Z,5.30
2019-01-18T03:19:44.927Z,2.83
2019-01-18T03:22:16.308Z,2.53
2019-01-18T03:24:47.591Z,3.20
2019-01-18T03:27:18.895Z,2.43
2019-01-18T03:29:50.186Z,2.03
2019-01-18T03:32:21.505Z,4.33
2019-01-18T03:34:52.787Z,2.90
2019-01-18T03:37:24.260Z,2.10
2019-01-18T03:40:16.228Z,3.03
2019-01-18T03:42:48.462Z,2.73
2019-01-18T03:45:20.597Z,5.00
2019-01-18T03:47:51.915Z,4.20
2019-01-18T03:50:26.146Z,2.70
2019-01-18T03:52:57.464Z,5.17
2019-01-18T03:55:28.755Z,4.20
2019-01-18T03:58:00.358Z,2.30
2019-01-18T04:00:31.661Z,2.43
2019-01-18T04:03:02.946Z,5.57
2019-01-18T04:05:34.480Z,4.07
2019-01-18T04:08:05.767Z,4.93
2019-01-18T04:10:37.072Z,2.53
2019-01-18T04:13:08.384Z,10.00
2019-01-18T04:15:39.660Z,5.53
2019-01-18T04:18:10.955Z,4.37
2019-01-18T04:20:42.238Z,3.90
2019-01-18T04:23:13.554Z,5.73
2019-01-18T04:25:44.984Z,5.07
2019-01-18T04:28:16.281Z,5.33
2019-01-18T04:30:47.596Z,4.33
2019-01-18T04:33:18.890Z,5.97
2019-01-18T04:35:50.175Z,4.27
2019-01-18T04:38:21.540Z,9.53
2019-01-18T04:40:53.114Z,8.43
2019-01-18T04:43:24.418Z,4.30
2019-01-18T04:45:55.729Z,4.67
2019-01-18T04:48:27.352Z,3.77
2019-01-18T04:50:59.011Z,2.33
2019-01-18T04:53:30.311Z,4.57
2019-01-18T04:56:01.611Z,2.60
2019-01-18T04:58:32.972Z,5.43
2019-01-18T05:01:04.275Z,2.87
2019-01-18T05:03:35.561Z,3.67
2019-01-18T05:06:06.884Z,3.03
2019-01-18T05:08:38.177Z,5.90
2019-01-18T05:11:09.477Z,5.20
2019-01-18T05:13:40.958Z,2.30
2019-01-18T05:16:12.726Z,6.33
2019-01-18T05:18:44.040Z,10.67
2019-01-18T05:21:15.780Z,7.10
2019-01-18T05:23:47.073Z,5.47
2019-01-18T05:26:18.501Z,6.47
2019-01-18T05:28:50.073Z,8.83
2019-01-18T05:31:21.448Z,6.13
2019-01-18T05:33:52.733Z,5.00
2019-01-18T05:36:24.034Z,7.20
2019-01-18T05:38:55.493Z,4.50
2019-01-18T05:41:29.549Z,4.93
2019-01-18T05:44:00.835Z,4.87
2019-01-18T05:46:32.141Z,6.87
2019-01-18T05:49:03.454Z,5.43
2019-01-18T05:51:34.744Z,7.40
2019-01-18T05:54:06.032Z,5.87
2019-01-18T05:56:37.357Z,7.70
2019-01-18T05:59:08.669Z,14.87
2019-01-18T06:01:40.036Z,7.87
2019-01-18T06:04:11.320Z,6.73
2019-01-18T06:06:42.894Z,2.93
2019-01-18T06:09:14.210Z,6.57
2019-01-18T06:11:45.511Z,6.77
2019-01-18T06:14:17.121Z,4.80
2019-01-18T06:16:48.773Z,4.30
2019-01-18T06:19:20.065Z,7.70
2019-01-18T06:21:51.363Z,5.77
2019-01-18T06:24:22.680Z,5.73
2019-01-18T06:26:53.989Z,9.20
2019-01-18T06:29:25.313Z,3.90
2019-01-18T06:31:56.603Z,8.50
2019-01-18T06:34:27.886Z,8.23
2019-01-18T06:36:59.205Z,8.13
2019-01-18T06:39:30.491Z,8.87
2019-01-18T06:42:01.810Z,10.83
2019-01-18T06:44:33.109Z,10.00
2019-01-18T06:47:04.386Z,8.57
2019-01-18T06:49:35.685Z,9.50
2019-01-18T06:52:06.978Z,5.57
2019-01-18T06:54:38.598Z,8.37
2019-01-18T06:57:09.905Z,9.90
2019-01-18T06:59:41.193Z,8.43
2019-01-18T07:02:12.488Z,7.37
2019-01-18T07:04:44.844Z,9.10
2019-01-18T07:07:16.166Z,14.03
2019-01-18T07:09:47.435Z,9.17
2019-01-18T07:12:18.751Z,6.97
2019-01-18T07:14:50.063Z,10.40
2019-01-18T07:17:21.669Z,8.07
2019-01-18T07:19:52.984Z,9.50
2019-01-18T07:22:24.378Z,6.37
2019-01-18T07:24:55.671Z,6.07
2019-01-18T07:27:27.027Z,15.70
2019-01-18T07:29:58.406Z,11.30
2019-01-18T07:32:29.712Z,9.83
2019-01-18T07:35:01.484Z,7.90
2019-01-18T07:37:33.058Z,9.27
2019-01-18T07:40:07.255Z,9.53
2019-01-18T07:42:38.556Z,7.37
2019-01-18T07:45:20.403Z,8.53
2019-01-18T07:47:51.826Z,10.57
2019-01-18T07:50:23.098Z,8.57
2019-01-18T07:52:54.694Z,10.57
2019-01-18T07:55:25.966Z,9.90
2019-01-18T07:57:57.285Z,10.27
2019-01-18T08:00:30.600Z,8.60
2019-01-18T08:03:01.884Z,5.37
2019-01-18T08:05:33.282Z,11.43
2019-01-18T08:08:04.621Z,5.00
2019-01-18T08:10:35.989Z,7.43
2019-01-18T08:13:08.019Z,6.20
2019-01-18T08:15:39.310Z,6.87
2019-01-18T08:18:10.607Z,7.13
2019-01-18T08:20:41.902Z,7.10
2019-01-18T08:23:13.293Z,6.67
2019-01-18T08:25:44.896Z,8.97
2019-01-18T08:28:16.248Z,10.77
2019-01-18T08:30:47.546Z,10.03
2019-01-18T08:33:18.841Z,5.50
2019-01-18T08:35:50.280Z,8.17
2019-01-18T08:38:21.576Z,6.93
2019-01-18T08:40:52.872Z,6.20
2019-01-18T08:43:24.466Z,12.20
2019-01-18T08:45:55.779Z,6.20
2019-01-18T08:48:27.045Z,8.30
2019-01-18T08:50:58.450Z,8.03
2019-01-18T08:53:29.739Z,8.37
2019-01-18T08:56:01.194Z,10.87
2019-01-18T08:58:32.459Z,5.03
2019-01-18T09:01:04.051Z,10.23
2019-01-18T09:03:35.401Z,10.73
2019-01-18T09:06:06.699Z,10.63
2019-01-18T09:08:38.000Z,19.23
2019-01-18T09:11:09.277Z,7.00
2019-01-18T09:13:40.580Z,9.30
2019-01-18T09:16:12.134Z,5.50
2019-01-18T09:18:43.542Z,7.43
2019-01-18T09:21:14.832Z,7.70
2019-01-18T09:23:46.165Z,7.87
2019-01-18T09:26:17.721Z,6.87
2019-01-18T09:28:49.068Z,10.87
2019-01-18T09:31:20.619Z,6.17
2019-01-18T09:33:52.169Z,8.90
2019-01-18T09:36:23.529Z,6.80
2019-01-18T09:38:54.895Z,10.13
2019-01-18T09:41:26.448Z,13.30
2019-01-18T09:43:57.760Z,7.20
2019-01-18T09:46:29.338Z,6.87
2019-01-18T09:49:00.632Z,8.20
2019-01-18T09:51:31.936Z,6.97
2019-01-18T09:54:03.235Z,7.20
2019-01-18T09:56:34.558Z,11.50
2019-01-18T09:59:05.858Z,7.00
2019-01-18T10:01:37.186Z,4.37
2019-01-18T10:04:08.620Z,9.60
2019-01-18T10:06:39.896Z,7.30
2019-01-18T10:09:11.499Z,6.10
2019-01-18T10:11:42.988Z,7.17
2019-01-18T10:14:14.371Z,7.97
2019-01-18T10:16:45.767Z,5.97
2019-01-18T10:19:17.085Z,7.47
2019-01-18T10:21:48.386Z,4.10
2019-01-18T10:24:21.032Z,7.50
2019-01-18T10:26:52.472Z,7.97
2019-01-18T10:29:28.176Z,5.73
2019-01-18T10:31:56.775Z,6.57
2019-01-18T10:34:28.945Z,9.70
2019-01-18T10:37:00.241Z,4.67
2019-01-18T10:39:31.567Z,5.83
2019-01-18T10:42:02.981Z,3.30
2019-01-18T10:44:34.344Z,9.67
2019-01-18T10:47:05.846Z,5.20
2019-01-18T10:49:37.139Z,3.73
2019-01-18T10:52:08.747Z,7.13
2019-01-18T10:54:40.147Z,6.07
2019-01-18T10:57:11.497Z,5.57
2019-01-18T10:59:42.780Z,6.30
2019-01-18T11:02:14.167Z,4.50
2019-01-18T11:04:45.459Z,7.10
2019-01-18T11:07:16.774Z,7.57
2019-01-18T11:09:48.079Z,6.20
2019-01-18T11:12:19.402Z,5.80
2019-01-18T11:14:50.686Z,9.43
2019-01-18T11:17:22.003Z,8.97
2019-01-18T11:19:53.514Z,6.47
2019-01-18T11:22:24.960Z,11.23
2019-01-18T11:24:56.572Z,8.80
2019-01-18T11:27:27.890Z,6.00
2019-01-18T11:29:59.202Z,8.43
2019-01-18T11:32:34.041Z,10.10
2019-01-18T11:35:06.517Z,6.57
2019-01-18T11:37:37.848Z,11.20
2019-01-18T11:40:16.111Z,5.13
2019-01-18T11:42:47.532Z,7.50
2019-01-18T11:45:21.911Z,8.27
2019-01-18T11:47:53.286Z,5.20
2019-01-18T11:50:28.788Z,8.53
2019-01-18T11:53:00.155Z,10.80
2019-01-18T11:55:31.735Z,5.77
2019-01-18T11:58:03.058Z,8.60
2019-01-18T12:00:37.841Z,5.53
2019-01-18T12:03:08.072Z,9.93
2019-01-18T12:05:39.404Z,10.60
2019-01-18T12:08:10.744Z,12.13
2019-01-18T12:10:42.046Z,13.47
2019-01-18T12:13:13.330Z,7.83
2019-01-18T12:15:44.690Z,15.67
2019-01-18T12:18:15.989Z,11.67
2019-01-18T12:20:47.309Z,7.13
2019-01-18T12:23:18.724Z,12.63
2019-01-18T12:25:50.072Z,6.07
2019-01-18T12:28:22.607Z,13.27
2019-01-18T12:30:54.131Z,7.70
2019-01-18T12:33:25.564Z,10.03
2019-01-18T12:35:57.057Z,8.50
2019-01-18T12:38:28.505Z,8.30
2019-01-18T12:41:00.223Z,7.53
2019-01-18T12:43:31.946Z,11.27
2019-01-18T12:46:03.310Z,9.77
2019-01-18T12:48:34.694Z,7.30
2019-01-18T12:51:06.000Z,9.80
2019-01-18T12:53:37.349Z,17.23
2019-01-18T12:56:08.624Z,8.33
2019-01-18T12:58:39.982Z,11.53
2019-01-18T13:01:11.524Z,8.67
2019-01-18T13:03:42.873Z,10.77
2019-01-18T13:06:14.710Z,7.60
2019-01-18T13:08:46.026Z,11.43
2019-01-18T13:11:17.347Z,10.23
2019-01-18T13:13:48.963Z,20.97
2019-01-18T13:16:22.359Z,12.73
2019-01-18T13:18:53.676Z,12.37
2019-01-18T13:21:24.987Z,11.50
2019-01-18T13:23:56.358Z,6.60
2019-01-18T13:26:30.551Z,9.23
2019-01-18T13:29:01.851Z,9.07
2019-01-18T13:31:33.198Z,11.80
2019-01-18T13:34:04.576Z,11.47
2019-01-18T13:36:35.867Z,6.00
2019-01-18T13:39:07.962Z,5.83
2019-01-18T13:41:39.289Z,10.07
2019-01-18T13:44:10.572Z,6.13
2019-01-18T13:46:42.230Z,13.87
2019-01-18T13:49:13.528Z,13.20
2019-01-18T13:51:46.271Z,10.13
2019-01-18T13:54:18.339Z,8.27
2019-01-18T13:56:49.661Z,20.23
2019-01-18T13:59:20.974Z,10.10
2019-01-18T14:01:52.646Z,13.70
2019-01-18T14:04:23.988Z,13.23
2019-01-18T14:06:55.315Z,12.90
2019-01-18T14:09:26.809Z,13.27
2019-01-18T14:11:58.171Z,13.07
2019-01-18T14:14:29.485Z,18.93
2019-01-18T14:17:00.862Z,10.57
2019-01-18T14:19:32.144Z,8.57
2019-01-18T14:22:03.494Z,19.63
2019-01-18T14:24:35.163Z,12.63
2019-01-18T14:27:06.475Z,12.50
2019-01-18T14:29:37.918Z,10.43
2019-01-18T14:32:09.219Z,15.67
2019-01-18T14:34:40.532Z,5.83
2019-01-18T14:37:12.115Z,9.87
2019-01-18T14:39:44.038Z,12.93
2019-01-18T14:42:15.450Z,6.83
2019-01-18T14:44:46.939Z,9.40
2019-01-18T14:47:18.267Z,14.17
2019-01-18T14:49:49.628Z,14.80
2019-01-18T14:52:20.981Z,10.43
2019-01-18T14:54:52.358Z,10.20
2019-01-18T14:57:23.840Z,8.40
2019-01-18T14:59:55.194Z,9.30
2019-01-18T15:02:26.796Z,9.43
2019-01-18T15:04:58.438Z,9.90
2019-01-18T15:07:30.124Z,11.17
2019-01-18T15:10:05.061Z,9.93
2019-01-18T15:12:34.549Z,10.63
2019-01-18T15:15:11.106Z,14.07
2019-01-18T15:17:43.255Z,10.30
2019-01-18T15:20:23.813Z,16.17
2019-01-18T15:22:55.109Z,14.57
2019-01-18T15:25:26.763Z,13.37
2019-01-18T15:27:58.054Z,13.90
2019-01-18T15:30:32.705Z,16.97
2019-01-18T15:33:09.143Z,25.57
2019-01-18T15:35:45.068Z,19.67
2019-01-18T15:38:19.320Z,11.33
2019-01-18T15:40:51.094Z,13.90
2019-01-18T15:43:23.118Z,11.60
2019-01-18T15:45:54.416Z,11.33
2019-01-18T15:48:25.704Z,8.73
2019-01-18T15:50:57.021Z,11.30
2019-01-18T15:53:28.329Z,12.07
2019-01-18T15:55:59.735Z,12.00
2019-01-18T15:58:31.033Z,16.07
2019-01-18T16:01:02.362Z,16.77
2019-01-18T16:03:34.117Z,12.77
2019-01-18T16:06:06.548Z,12.40
2019-01-18T16:08:37.839Z,16.93
2019-01-18T16:11:10.010Z,18.43
2019-01-18T16:13:41.358Z,15.70
2019-01-18T16:16:16.644Z,17.30
2019-01-18T16:18:48.055Z,15.50
2019-01-18T16:21:19.351Z,7.77
2019-01-18T16:23:51.243Z,9.03
2019-01-18T16:26:22.583Z,13.30
2019-01-18T16:28:53.893Z,15.37
2019-01-18T16:31:25.262Z,15.20
2019-01-18T16:33:58.294Z,13.10
2019-01-18T16:36:29.955Z,12.83
2019-01-18T16:39:01.341Z,15.03
2019-01-18T16:41:32.758Z,15.10
2019-01-18T16:44:04.030Z,18.80
2019-01-18T16:46:35.422Z,13.23
2019-01-18T16:49:06.813Z,22.07
2019-01-18T16:51:38.117Z,11.17
2019-01-18T16:54:09.691Z,13.53
2019-01-18T16:56:41.260Z,16.47
2019-01-18T16:59:12.562Z,15.43
2019-01-18T17:01:44.165Z,14.27
2019-01-18T17:04:15.492Z,19.03
2019-01-18T17:06:47.233Z,12.03
2019-01-18T17:09:18.628Z,14.43
2019-01-18T17:11:49.923Z,21.80
2019-01-18T17:14:21.538Z,15.73
2019-01-18T17:16:53.084Z,23.73
2019-01-18T17:19:24.657Z,18.43
2019-01-18T17:21:55.954Z,15.47
2019-01-18T17:24:27.324Z,20.40
2019-01-18T17:26:58.696Z,12.73
2019-01-18T17:29:30.345Z,18.57
2019-01-18T17:32:01.657Z,14.27
2019-01-18T17:34:35.175Z,12.13
2019-01-18T17:37:06.737Z,16.70
2019-01-18T17:39:42.982Z,15.67
2019-01-18T17:42:34.625Z,24.37
2019-01-18T17:45:43.397Z,17.40
2019-01-18T17:48:34.299Z,11.97
2019-01-18T17:51:34.627Z,17.20
2019-01-18T17:54:36.954Z,14.60
2019-01-18T17:57:24.742Z,16.73
2019-01-18T18:00:03.952Z,14.97
2019-01-18T18:03:18.051Z,14.00
2019-01-18T18:06:03.767Z,17.13
2019-01-18T18:08:45.898Z,12.90
2019-01-18T18:11:31.039Z,21.27
2019-01-18T18:14:17.402Z,15.80
2019-01-18T18:17:14.206Z,17.77
2019-01-18T18:20:21.439Z,16.33
2019-01-18T18:23:23.076Z,14.50
2019-01-18T18:26:09.096Z,15.23
2019-01-18T18:29:13.983Z,14.60
2019-01-18T18:32:27.620Z,16.33
2019-01-18T18:35:26.565Z,13.70
2019-01-18T18:38:17.522Z,16.23
2019-01-18T18:41:20.699Z,17.17
2019-01-18T18:44:25.653Z,17.93
2019-01-18T18:47:25.249Z,20.77
2019-01-18T18:50:16.171Z,17.53
2019-01-18T18:53:18.215Z,22.33
2019-01-18T18:56:00.067Z,15.37
2019-01-18T18:59:03.235Z,17.70
2019-01-18T19:01:55.831Z,19.80
2019-01-18T19:04:53.089Z,21.80
2019-01-18T19:07:46.864Z,19.07
2019-01-18T19:10:35.447Z,23.67
2019-01-18T19:13:27.728Z,16.43
2019-01-18T19:16:09.757Z,19.73
2019-01-18T19:19:00.361Z,18.47
2019-01-18T19:21:51.125Z,19.53
2019-01-18T19:24:39.455Z,24.20
2019-01-18T19:27:39.675Z,18.90
2019-01-18T19:30:36.278Z,18.77
2019-01-18T19:33:24.588Z,15.03
2019-01-18T19:36:24.692Z,20.63
2019-01-18T19:39:15.487Z,17.90
2019-01-18T19:42:09.991Z,20.57
2019-01-18T19:44:57.716Z,18.23
2019-01-18T19:47:33.907Z,24.33
2019-01-18T19:50:21.842Z,17.47
2019-01-18T19:53:15.845Z,19.53
2019-01-18T19:56:06.819Z,20.57
2019-01-18T19:58:48.261Z,20.07
2019-01-18T20:01:27.043Z,21.63
2019-01-18T20:04:32.908Z,23.60
2019-01-18T20:07:29.298Z,23.13
2019-01-18T20:10:29.327Z,25.50
2019-01-18T20:13:43.216Z,21.83
2019-01-18T20:16:46.060Z,23.37
2019-01-18T20:19:28.287Z,26.03
2019-01-18T20:22:13.136Z,28.13
2019-01-18T20:25:19.308Z,27.60
2019-01-18T20:28:26.962Z,22.63
2019-01-18T20:31:15.023Z,26.50
2019-01-18T20:34:08.968Z,27.63
2019-01-18T20:37:00.531Z,22.77
2019-01-18T20:40:12.786Z,30.97
2019-01-18T20:43:12.792Z,25.63
2019-01-18T20:46:06.769Z,33.33
2019-01-18T20:48:48.543Z,25.47
2019-01-18T20:51:33.706Z,27.90
2019-01-18T20:54:27.817Z,27.50
2019-01-18T20:57:21.456Z,24.70
2019-01-18T21:00:15.630Z,22.70
2019-01-18T21:03:34.888Z,30.30
2019-01-18T21:06:16.968Z,28.87
2019-01-18T21:09:10.996Z,24.93
2019-01-18T21:11:47.185Z,26.57
2019-01-18T21:14:23.393Z,21.03
2019-01-18T21:16:59.627Z,24.63
2019-01-18T21:19:41.661Z,25.80
2019-01-18T21:22:43.474Z,19.90
2019-01-18T21:25:49.756Z,22.83
2019-01-18T21:28:53.029Z,25.70
2019-01-18T21:32:02.414Z,22.17
2019-01-18T21:34:53.197Z,23.53
2019-01-18T21:37:32.326Z,31.53
2019-01-18T21:40:19.589Z,34.67
2019-01-18T21:43:19.676Z,26.77
2019-01-18T21:46:07.102Z,23.43
2019-01-18T21:49:05.943Z,27.77
2019-01-18T21:52:14.476Z,28.03
2019-01-18T21:55:16.375Z,23.90
2019-01-18T21:57:58.100Z,21.93
2019-01-18T22:00:48.329Z,30.13
2019-01-18T22:03:39.196Z,31.00
2019-01-18T22:06:32.598Z,26.50
2019-01-18T22:09:23.266Z,28.57
2019-01-18T22:12:20.671Z,26.07
2019-01-18T22:15:28.462Z,24.23
2019-01-18T22:18:30.007Z,28.50
2019-01-18T22:21:26.373Z,22.33
2019-01-18T22:24:02.735Z,24.70
2019-01-18T22:26:44.999Z,32.43
2019-01-18T22:29:35.937Z,28.73
2019-01-18T22:32:27.318Z,25.57
2019-01-18T22:35:30.329Z,30.90
2019-01-18T22:38:43.855Z,23.90
2019-01-18T22:41:31.808Z,28.80
2019-01-18T22:44:32.099Z,22.87
2019-01-18T22:47:13.995Z,24.17
2019-01-18T22:50:09.630Z,28.83
2019-01-18T22:53:03.625Z,26.60
2019-01-18T22:55:54.116Z,30.43
2019-01-18T22:58:33.016Z,27.83
2019-01-18T23:01:55.976Z,35.50
2019-01-18T23:04:55.479Z,31.00
2019-01-18T23:08:01.274Z,35.70
2019-01-18T23:10:49.518Z,30.30
2019-01-18T23:13:33.983Z,24.47
2019-01-18T23:16:29.646Z,36.63
2019-01-18T23:19:11.716Z,29.90
2019-01-18T23:22:21.472Z,36.37
2019-01-18T23:25:06.320Z,27.87
2019-01-18T23:27:57.410Z,25.40
2019-01-18T23:30:42.148Z,24.80
2019-01-18T23:33:42.469Z,26.10
2019-01-18T23:36:21.600Z,23.50
2019-01-18T23:39:15.659Z,27.17
2019-01-18T23:42:26.212Z,23.30
2019-01-18T23:45:07.933Z,22.97
2019-01-18T23:48:01.904Z,31.27
2019-01-18T23:50:38.121Z,25.70
2019-01-18T23:53:44.334Z,26.60
2019-01-18T23:56:19.403Z,27.80
2019-01-18T23:59:07.348Z,28.80
